Terminal Aerodrome Forecast
Issued by NWS

Home | Current Version | Previous Version | Text Only | Print | Product List | Glossary On
Versions: 1 2 3 4 5 6 7 8 9 10 11 12 13 14 15 16 17 18 19 20 21 22 23 24 25 26 27 28 29 30 31 32
000
FTUS44 KFWD 230900 AAB
TAFGKY
TAF AMD
KGKY 230901Z 2309/2406 20006KT P6SM SCT008 BKN250
      TEMPO 2309/2313 3SM BR BKN003
     FM231400 21011KT P6SM SCT250
     FM231800 24017KT P6SM SKC
     FM232100 30023G33KT P6SM SKC
     FM240200 31018G28KT P6SM SCT080=

USA.gov is the U.S. government's official web portal to all federal, state and local government web resources and services.